Brownwood, Texas
Current Conditions -  °F | °C
As of 4:15 AM on Saturday 22 Nov 2014 (Local Time) from KBWD Reporting Station
Overcast Overcast  
Wind Chill: 64°   Ceiling: 5000
Heat Index: 64°   Visibility: 10mi
Dew Point: 63°   Wind: 12mph
Humidity: 94%   Direction: 150°SSE
Pressure: 30"   Gusts: NA
Location:  31.73°N, 98.98°W
Report Text: KBWD 221015Z AUTO 15010KT 10SM SCT014 BKN050 OVC085 18/17 A3000 RMK AO2
Loading
Personal Weather Stations






























Interactive Weather Map New forecast layout! Learn more

10-Day Weather Forecast

Advertisements
Track Severe Weather on mobile